createdAt,value
2018-05-04T00:01:16.537Z,3.17
2018-05-04T00:03:51.158Z,3.00
2018-05-04T00:06:25.756Z,2.87
2018-05-04T00:09:00.436Z,3.10
2018-05-04T00:11:34.892Z,2.97
2018-05-04T00:14:09.549Z,3.20
2018-05-04T00:16:44.120Z,3.40
2018-05-04T00:19:18.809Z,3.07
2018-05-04T00:21:53.399Z,3.17
2018-05-04T00:24:28.168Z,3.47
2018-05-04T00:27:02.589Z,3.23
2018-05-04T00:29:37.053Z,3.33
2018-05-04T00:32:11.401Z,3.70
2018-05-04T00:34:45.999Z,4.17
2018-05-04T00:37:20.575Z,3.67
2018-05-04T00:39:55.903Z,3.83
2018-05-04T00:42:30.537Z,3.87
2018-05-04T00:45:05.779Z,3.93
2018-05-04T00:47:40.391Z,4.17
2018-05-04T00:50:15.128Z,4.10
2018-05-04T00:52:49.846Z,4.30
2018-05-04T00:55:24.586Z,4.53
2018-05-04T00:57:59.846Z,4.30
2018-05-04T01:00:34.446Z,4.50
2018-05-04T01:03:09.033Z,3.87
2018-05-04T01:05:43.582Z,4.83
2018-05-04T01:08:18.181Z,4.03
2018-05-04T01:10:52.749Z,4.57
2018-05-04T01:13:28.040Z,5.20
2018-05-04T01:16:03.386Z,3.90
2018-05-04T01:18:37.856Z,4.10
2018-05-04T01:21:12.321Z,4.73
2018-05-04T01:23:47.064Z,4.47
2018-05-04T01:26:21.506Z,4.40
2018-05-04T01:28:56.012Z,4.93
2018-05-04T01:31:30.553Z,4.83
2018-05-04T01:34:05.853Z,5.37
2018-05-04T01:36:40.377Z,5.13
2018-05-04T01:39:14.914Z,5.27
2018-05-04T01:41:50.178Z,5.73
2018-05-04T01:44:24.735Z,5.53
2018-05-04T01:46:59.259Z,5.27
2018-05-04T01:49:33.749Z,5.23
2018-05-04T01:52:09.052Z,5.10
2018-05-04T01:54:43.659Z,6.63
2018-05-04T01:57:18.300Z,5.77
2018-05-04T01:59:52.779Z,6.00
2018-05-04T02:02:27.441Z,6.20
2018-05-04T02:05:01.970Z,6.40
2018-05-04T02:07:36.456Z,6.27
2018-05-04T02:10:10.929Z,6.17
2018-05-04T02:12:45.488Z,6.20
2018-05-04T02:15:20.908Z,6.30
2018-05-04T02:17:55.524Z,6.07
2018-05-04T02:20:30.074Z,6.93
2018-05-04T02:23:04.672Z,6.93
2018-05-04T02:25:39.333Z,6.53
2018-05-04T02:28:13.904Z,6.40
2018-05-04T02:30:48.460Z,7.10
2018-05-04T02:33:23.142Z,6.27
2018-05-04T02:35:58.453Z,6.67
2018-05-04T02:38:33.759Z,6.70
2018-05-04T02:41:08.337Z,6.87
2018-05-04T02:43:42.826Z,7.40
2018-05-04T02:46:17.520Z,7.13
2018-05-04T02:48:52.910Z,7.57
2018-05-04T02:51:27.468Z,8.10
2018-05-04T02:54:01.893Z,8.00
2018-05-04T02:56:36.413Z,7.10
2018-05-04T02:59:10.982Z,7.57
2018-05-04T03:01:45.605Z,7.53
2018-05-04T03:04:20.224Z,8.57
2018-05-04T03:06:54.881Z,7.70
2018-05-04T03:09:30.088Z,7.90
2018-05-04T03:12:04.714Z,8.33
2018-05-04T03:14:39.441Z,8.30
2018-05-04T03:17:14.089Z,8.40
2018-05-04T03:19:48.547Z,8.00
2018-05-04T03:22:23.109Z,8.07
2018-05-04T03:24:57.649Z,8.37
2018-05-04T03:27:32.252Z,8.70
2018-05-04T03:30:06.721Z,8.30
2018-05-04T03:32:41.444Z,7.50
2018-05-04T03:35:15.866Z,8.90
2018-05-04T03:37:50.305Z,8.53
2018-05-04T03:40:24.914Z,8.90
2018-05-04T03:42:59.489Z,9.33
2018-05-04T03:45:34.045Z,9.23
2018-05-04T03:48:09.625Z,9.20
2018-05-04T03:50:44.025Z,9.57
2018-05-04T03:53:18.599Z,9.40
2018-05-04T03:55:53.996Z,9.77
2018-05-04T03:58:46.362Z,8.33
2018-05-04T04:01:38.733Z,8.70
2018-05-04T04:04:13.393Z,7.90
2018-05-04T04:06:48.017Z,8.97
2018-05-04T04:09:22.704Z,8.47
2018-05-04T04:11:58.020Z,8.33
2018-05-04T04:14:32.566Z,8.77
2018-05-04T04:17:06.961Z,8.80
2018-05-04T04:19:42.326Z,8.90
2018-05-04T04:22:17.060Z,9.20
2018-05-04T04:24:51.679Z,8.33
2018-05-04T04:27:26.329Z,8.70
2018-05-04T04:30:00.739Z,7.27
2018-05-04T04:32:35.344Z,7.00
2018-05-04T04:35:09.883Z,8.23
2018-05-04T04:37:44.300Z,9.30
2018-05-04T04:40:19.594Z,7.93
2018-05-04T04:42:54.230Z,7.17
2018-05-04T04:45:29.574Z,8.27
2018-05-04T04:48:04.112Z,8.03
2018-05-04T04:50:38.669Z,7.33
2018-05-04T04:53:13.089Z,9.03
2018-05-04T04:55:47.561Z,8.33
2018-05-04T04:58:22.117Z,8.63
2018-05-04T05:00:56.679Z,8.90
2018-05-04T05:03:31.085Z,7.50
2018-05-04T05:06:05.639Z,9.57
2018-05-04T05:08:40.821Z,9.40
2018-05-04T05:11:15.490Z,7.93
2018-05-04T05:13:50.050Z,10.27
2018-05-04T05:16:25.254Z,9.57
2018-05-04T05:18:59.837Z,10.13
2018-05-04T05:21:34.466Z,10.57
2018-05-04T05:24:09.054Z,9.90
2018-05-04T05:26:43.461Z,11.53
2018-05-04T05:29:17.894Z,10.17
2018-05-04T05:31:53.124Z,12.50
2018-05-04T05:34:27.693Z,12.23
2018-05-04T05:37:02.153Z,11.80
2018-05-04T05:39:36.644Z,13.07
2018-05-04T05:42:11.941Z,12.77
2018-05-04T05:44:46.491Z,13.60
2018-05-04T05:47:21.091Z,13.60
2018-05-04T05:49:55.670Z,12.60
2018-05-04T05:52:31.015Z,13.30
2018-05-04T05:55:05.603Z,12.60
2018-05-04T05:57:40.161Z,11.90
2018-05-04T06:00:14.692Z,11.70
2018-05-04T06:02:49.114Z,11.47
2018-05-04T06:05:23.516Z,11.10
2018-05-04T06:07:59.032Z,10.60
2018-05-04T06:10:33.548Z,10.70
2018-05-04T06:13:08.873Z,11.70
2018-05-04T06:15:43.566Z,10.70
2018-05-04T06:18:18.321Z,10.67
2018-05-04T06:20:52.844Z,9.50
2018-05-04T06:23:27.415Z,10.73
2018-05-04T06:26:02.839Z,10.43
2018-05-04T06:28:37.238Z,9.73
2018-05-04T06:31:12.617Z,9.87
2018-05-04T06:33:47.106Z,10.07
2018-05-04T06:36:21.701Z,9.10
2018-05-04T06:38:56.355Z,10.10
2018-05-04T06:41:30.974Z,9.43
2018-05-04T06:44:05.398Z,8.73
2018-05-04T06:46:39.919Z,9.60
2018-05-04T06:49:14.604Z,7.73
2018-05-04T06:51:49.307Z,8.13
2018-05-04T06:54:23.849Z,8.30
2018-05-04T06:56:58.434Z,8.57
2018-05-04T06:59:33.103Z,7.80
2018-05-04T07:02:07.541Z,7.87
2018-05-04T07:04:42.012Z,7.43
2018-05-04T07:07:16.644Z,7.40
2018-05-04T07:09:51.130Z,7.63
2018-05-04T07:12:26.498Z,7.53
2018-05-04T07:15:01.254Z,7.83
2018-05-04T07:17:35.760Z,6.63
2018-05-04T07:20:10.306Z,7.53
2018-05-04T07:22:44.937Z,7.30
2018-05-04T07:25:19.532Z,7.43
2018-05-04T07:27:54.114Z,6.93
2018-05-04T07:30:28.723Z,7.03
2018-05-04T07:33:03.246Z,7.03
2018-05-04T07:35:37.661Z,6.83
2018-05-04T07:38:13.008Z,6.00
2018-05-04T07:40:47.457Z,6.13
2018-05-04T07:43:21.863Z,6.50
2018-05-04T07:45:56.570Z,5.53
2018-05-04T07:48:31.179Z,5.83
2018-05-04T07:51:06.488Z,5.43
2018-05-04T07:53:41.144Z,5.80
2018-05-04T07:56:16.535Z,4.97
2018-05-04T07:58:51.914Z,6.10
2018-05-04T08:01:26.405Z,5.10
2018-05-04T08:04:00.978Z,5.80
2018-05-04T08:06:35.604Z,5.63
2018-05-04T08:09:10.842Z,5.63
2018-05-04T08:11:45.406Z,5.23
2018-05-04T08:14:19.889Z,5.43
2018-05-04T08:16:54.507Z,4.53
2018-05-04T08:19:29.842Z,4.83
2018-05-04T08:22:04.422Z,4.23
2018-05-04T08:24:39.004Z,4.00
2018-05-04T08:27:13.521Z,4.10
2018-05-04T08:29:48.173Z,3.90
2018-05-04T08:32:22.711Z,3.60
2018-05-04T08:34:57.388Z,4.13
2018-05-04T08:37:32.044Z,3.93
2018-05-04T08:40:06.582Z,4.10
2018-05-04T08:42:41.031Z,4.40
2018-05-04T08:45:16.367Z,4.43
2018-05-04T08:47:51.577Z,4.00
2018-05-04T08:50:26.244Z,4.13
2018-05-04T08:53:00.936Z,4.30
2018-05-04T08:55:35.575Z,4.20
2018-05-04T08:58:10.145Z,4.37
2018-05-04T09:00:44.704Z,4.00
2018-05-04T09:03:19.896Z,4.00
2018-05-04T09:05:54.441Z,3.90
2018-05-04T09:08:29.112Z,4.00
2018-05-04T09:11:04.484Z,3.33
2018-05-04T09:13:39.065Z,3.13
2018-05-04T09:16:13.680Z,3.23
2018-05-04T09:18:48.313Z,3.23
2018-05-04T09:21:22.955Z,3.40
2018-05-04T09:23:57.577Z,3.30
2018-05-04T09:26:32.089Z,3.03
2018-05-04T09:29:06.576Z,3.07
2018-05-04T09:31:41.161Z,3.23
2018-05-04T09:34:16.567Z,3.10
2018-05-04T09:36:51.101Z,2.90
2018-05-04T09:39:25.741Z,2.83
2018-05-04T09:42:00.375Z,2.97
2018-05-04T09:44:34.901Z,2.70
2018-05-04T09:47:09.550Z,2.97
2018-05-04T09:49:44.095Z,2.87
2018-05-04T09:52:18.671Z,2.90
2018-05-04T09:54:53.319Z,2.80
2018-05-04T09:57:27.812Z,2.50
2018-05-04T10:00:02.419Z,2.67
2018-05-04T10:02:36.950Z,3.13
2018-05-04T10:05:11.543Z,2.97
2018-05-04T10:07:46.849Z,3.90
2018-05-04T10:10:21.536Z,2.70
2018-05-04T10:12:56.058Z,2.23
2018-05-04T10:15:30.628Z,2.27
2018-05-04T10:18:05.245Z,2.27
2018-05-04T10:20:39.885Z,2.57
2018-05-04T10:23:14.442Z,2.63
2018-05-04T10:25:48.966Z,2.40
2018-05-04T10:28:23.361Z,2.60
2018-05-04T10:30:58.019Z,3.00
2018-05-04T10:33:32.657Z,3.03
2018-05-04T10:36:07.239Z,2.90
2018-05-04T10:38:42.015Z,2.70
2018-05-04T10:41:16.287Z,2.87
2018-05-04T10:43:50.947Z,2.70
2018-05-04T10:46:25.521Z,2.40
2018-05-04T10:49:00.180Z,2.50
2018-05-04T10:51:34.802Z,2.80
2018-05-04T10:54:10.149Z,2.73
2018-05-04T10:56:44.740Z,2.57
2018-05-04T10:59:20.126Z,2.60
2018-05-04T11:01:54.737Z,2.70
2018-05-04T11:04:29.186Z,2.43
2018-05-04T11:07:03.826Z,2.70
2018-05-04T11:09:38.253Z,2.57
2018-05-04T11:12:12.813Z,2.80
2018-05-04T11:14:47.722Z,2.40
2018-05-04T11:17:22.284Z,2.83
2018-05-04T11:19:56.892Z,2.93
2018-05-04T11:22:32.227Z,2.57
2018-05-04T11:25:06.789Z,2.50
2018-05-04T11:27:41.424Z,2.70
2018-05-04T11:30:16.006Z,2.30
2018-05-04T11:32:50.651Z,2.50
2018-05-04T11:35:25.261Z,2.30
2018-05-04T11:37:59.875Z,2.83
2018-05-04T11:40:34.458Z,2.77
2018-05-04T11:43:09.082Z,2.60
2018-05-04T11:45:43.659Z,2.40
2018-05-04T11:48:19.082Z,2.80
2018-05-04T11:50:54.397Z,2.60
2018-05-04T11:53:29.020Z,2.67
2018-05-04T11:56:04.363Z,2.70
2018-05-04T11:58:38.935Z,2.40
2018-05-04T12:01:13.604Z,2.70
2018-05-04T12:03:48.130Z,2.77
2018-05-04T12:06:22.739Z,2.87
2018-05-04T12:08:57.213Z,2.53
2018-05-04T12:11:32.537Z,2.87
2018-05-04T12:14:07.151Z,2.67
2018-05-04T12:16:41.651Z,2.70
2018-05-04T12:19:16.168Z,2.30
2018-05-04T12:21:50.852Z,2.37
2018-05-04T12:24:26.065Z,2.80
2018-05-04T12:27:00.643Z,2.40
2018-05-04T12:29:35.268Z,2.33
2018-05-04T12:32:09.780Z,2.37
2018-05-04T12:34:44.354Z,2.30
2018-05-04T12:37:19.611Z,2.90
2018-05-04T12:39:54.189Z,2.53
2018-05-04T12:42:28.800Z,2.97
2018-05-04T12:45:03.501Z,2.50
2018-05-04T12:47:38.276Z,2.50
2018-05-04T12:50:13.682Z,2.23
2018-05-04T12:52:48.300Z,2.80
2018-05-04T12:55:22.786Z,3.10
2018-05-04T12:57:57.376Z,2.67
2018-05-04T13:00:31.941Z,3.07
2018-05-04T13:03:06.502Z,2.90
2018-05-04T13:05:41.013Z,2.90
2018-05-04T13:08:15.684Z,2.80
2018-05-04T13:10:50.262Z,2.60
2018-05-04T13:13:24.801Z,2.80
2018-05-04T13:15:59.312Z,2.90
2018-05-04T13:18:33.957Z,2.73
2018-05-04T13:21:08.582Z,3.20
2018-05-04T13:23:43.925Z,2.40
2018-05-04T13:26:18.704Z,3.17
2018-05-04T13:28:53.324Z,2.83
2018-05-04T13:31:28.670Z,2.80
2018-05-04T13:34:03.102Z,2.70
2018-05-04T13:36:37.666Z,3.20
2018-05-04T13:39:12.263Z,3.00
2018-05-04T13:41:46.828Z,2.77
2018-05-04T13:44:21.297Z,3.00
2018-05-04T13:46:55.727Z,3.13
2018-05-04T13:49:30.192Z,3.20
2018-05-04T13:52:04.716Z,3.13
2018-05-04T13:54:39.934Z,3.30
2018-05-04T13:57:14.605Z,3.50
2018-05-04T13:59:50.535Z,3.27
2018-05-04T14:02:25.058Z,3.40
2018-05-04T14:04:59.590Z,3.10
2018-05-04T14:07:34.152Z,3.80
2018-05-04T14:10:08.762Z,3.37
2018-05-04T14:12:43.416Z,3.63
2018-05-04T14:15:17.983Z,3.63
2018-05-04T14:17:52.710Z,3.40
2018-05-04T14:20:27.130Z,3.50
2018-05-04T14:23:01.653Z,4.07
2018-05-04T14:25:36.287Z,3.60
2018-05-04T14:28:10.773Z,3.70
2018-05-04T14:30:45.354Z,4.07
2018-05-04T14:33:19.975Z,3.70
2018-05-04T14:35:54.395Z,3.50
2018-05-04T14:38:29.020Z,4.60
2018-05-04T14:41:03.634Z,3.40
2018-05-04T14:43:38.211Z,3.90
2018-05-04T14:46:12.633Z,3.57
2018-05-04T14:48:47.226Z,3.50
2018-05-04T14:51:21.719Z,3.30
2018-05-04T14:53:56.126Z,3.47
2018-05-04T14:56:30.715Z,3.30
2018-05-04T14:59:05.255Z,3.60
2018-05-04T15:01:39.838Z,3.40
2018-05-04T15:04:14.421Z,3.87
2018-05-04T15:06:48.994Z,3.90
2018-05-04T15:09:23.480Z,3.60
2018-05-04T15:11:58.096Z,3.97
2018-05-04T15:14:32.684Z,4.23
2018-05-04T15:17:07.293Z,4.40
2018-05-04T15:19:41.685Z,4.53
2018-05-04T15:22:16.361Z,7.57
2018-05-04T15:24:51.702Z,5.47
2018-05-04T15:27:26.088Z,5.40
2018-05-04T15:30:00.685Z,4.30
2018-05-04T15:32:35.340Z,4.30
2018-05-04T15:35:09.901Z,6.33
2018-05-04T15:37:44.512Z,4.47
2018-05-04T15:40:19.140Z,5.23
2018-05-04T15:42:54.485Z,5.13
2018-05-04T15:45:29.117Z,4.90
2018-05-04T15:48:10.150Z,4.20
2018-05-04T15:53:49.809Z,4.20
2018-05-04T15:56:24.377Z,7.57
2018-05-04T15:58:58.994Z,11.70
2018-05-04T16:01:33.466Z,5.53
2018-05-04T16:04:08.085Z,4.60
2018-05-04T16:06:42.673Z,3.83
2018-05-04T16:09:17.235Z,4.00
2018-05-04T16:11:51.819Z,4.43
2018-05-04T16:14:26.408Z,4.10
2018-05-04T16:17:00.985Z,4.50
2018-05-04T16:19:35.616Z,5.20
2018-05-04T16:22:10.964Z,4.90
2018-05-04T16:24:45.574Z,5.50
2018-05-04T16:27:20.038Z,4.90
2018-05-04T16:29:54.595Z,4.07
2018-05-04T16:32:29.932Z,4.80
2018-05-04T16:35:04.524Z,4.37
2018-05-04T16:37:39.150Z,6.80
2018-05-04T16:40:13.716Z,4.93
2018-05-04T16:42:48.273Z,4.13
2018-05-04T16:45:22.905Z,4.53
2018-05-04T16:48:02.650Z,4.17
2018-05-04T16:50:37.290Z,3.93
2018-05-04T16:53:11.833Z,6.40
2018-05-04T16:55:46.470Z,5.77
2018-05-04T16:58:21.041Z,7.37
2018-05-04T17:00:55.676Z,9.03
2018-05-04T17:03:30.284Z,5.47
2018-05-04T17:06:04.841Z,4.17
2018-05-04T17:08:39.504Z,4.10
2018-05-04T17:11:14.057Z,4.47
2018-05-04T17:13:48.534Z,4.50
2018-05-04T17:16:23.145Z,4.67
2018-05-04T17:18:57.824Z,5.27
2018-05-04T17:21:32.363Z,4.83
2018-05-04T17:24:07.035Z,5.03
2018-05-04T17:26:42.356Z,14.20
2018-05-04T17:29:16.812Z,5.57
2018-05-04T17:31:51.467Z,4.30
2018-05-04T17:34:25.988Z,4.90
2018-05-04T17:37:00.385Z,7.33
2018-05-04T17:39:34.949Z,6.30
2018-05-04T17:42:10.124Z,5.00
2018-05-04T17:44:44.747Z,5.43
2018-05-04T17:47:20.054Z,4.80
2018-05-04T17:49:54.617Z,4.27
2018-05-04T17:52:29.245Z,4.30
2018-05-04T17:55:04.638Z,4.40
2018-05-04T17:57:39.162Z,4.23
2018-05-04T18:00:13.644Z,4.30
2018-05-04T18:02:48.268Z,4.20
2018-05-04T18:05:22.938Z,4.37
2018-05-04T18:07:57.520Z,4.23
2018-05-04T18:10:32.852Z,4.00
2018-05-04T18:13:07.413Z,4.30
2018-05-04T18:15:42.014Z,3.77
2018-05-04T18:18:16.427Z,3.80
2018-05-04T18:20:50.876Z,3.97
2018-05-04T18:23:25.429Z,4.27
2018-05-04T18:25:59.974Z,3.63
2018-05-04T18:28:34.652Z,3.47
2018-05-04T18:31:09.233Z,3.07
2018-05-04T18:33:43.832Z,3.70
2018-05-04T18:36:18.411Z,3.53
2018-05-04T18:38:53.047Z,3.43
2018-05-04T18:41:27.583Z,3.23
2018-05-04T18:44:02.200Z,3.23
2018-05-04T18:46:37.508Z,4.03
2018-05-04T18:49:12.104Z,7.77
2018-05-04T18:51:46.581Z,7.10
2018-05-04T18:54:21.329Z,5.60
2018-05-04T18:56:55.898Z,7.83
2018-05-04T18:59:31.248Z,4.97
2018-05-04T19:02:05.830Z,4.17
2018-05-04T19:04:40.451Z,5.60
2018-05-04T19:07:15.922Z,3.67
2018-05-04T19:09:50.646Z,3.23
2018-05-04T19:12:25.223Z,3.57
2018-05-04T19:14:59.849Z,4.10
2018-05-04T19:17:34.329Z,3.73
2018-05-04T19:20:08.926Z,3.50
2018-05-04T19:22:43.472Z,3.30
2018-05-04T19:25:18.654Z,3.27
2018-05-04T19:27:53.201Z,3.00
2018-05-04T19:30:27.685Z,3.40
2018-05-04T19:33:02.246Z,3.03
2018-05-04T19:35:36.785Z,3.50
2018-05-04T19:38:11.353Z,3.20
2018-05-04T19:40:46.586Z,2.83
2018-05-04T19:43:21.070Z,3.30
2018-05-04T19:45:56.424Z,3.03
2018-05-04T19:48:31.138Z,3.90
2018-05-04T19:51:06.379Z,4.00
2018-05-04T19:53:41.050Z,3.70
2018-05-04T19:56:15.553Z,3.63
2018-05-04T19:58:50.900Z,4.00
2018-05-04T20:01:25.469Z,4.17
2018-05-04T20:04:00.067Z,3.60
2018-05-04T20:06:34.526Z,4.40
2018-05-04T20:09:09.159Z,4.10
2018-05-04T20:11:43.635Z,4.00
2018-05-04T20:14:18.275Z,4.13
2018-05-04T20:16:52.837Z,4.00
2018-05-04T20:19:27.577Z,4.43
2018-05-04T20:22:02.070Z,4.50
2018-05-04T20:24:36.719Z,4.03
2018-05-04T20:27:11.219Z,4.70
2018-05-04T20:29:45.775Z,4.77
2018-05-04T20:32:20.998Z,4.70
2018-05-04T20:34:56.100Z,4.50
2018-05-04T20:37:30.677Z,4.60
2018-05-04T20:40:06.092Z,4.70
2018-05-04T20:42:40.628Z,5.03
2018-05-04T20:45:15.289Z,4.60
2018-05-04T20:47:49.810Z,3.87
2018-05-04T20:50:24.419Z,4.23
2018-05-04T20:52:59.029Z,4.73
2018-05-04T20:55:33.595Z,4.70
2018-05-04T20:58:08.840Z,4.57
2018-05-04T21:00:43.418Z,4.50
2018-05-04T21:03:18.028Z,5.00
2018-05-04T21:05:53.378Z,4.23
2018-05-04T21:08:27.902Z,4.60
2018-05-04T21:11:02.615Z,4.67
2018-05-04T21:13:37.329Z,4.67
2018-05-04T21:16:11.759Z,4.30
2018-05-04T21:18:46.361Z,4.43
2018-05-04T21:21:21.026Z,4.63
2018-05-04T21:23:55.774Z,3.87
2018-05-04T21:26:30.451Z,4.40
2018-05-04T21:29:05.193Z,4.40
2018-05-04T21:31:39.813Z,4.77
2018-05-04T21:34:15.034Z,4.53
2018-05-04T21:36:55.882Z,4.87
2018-05-04T21:39:30.397Z,5.13
2018-05-04T21:42:04.989Z,4.50
2018-05-04T21:44:39.580Z,4.90
2018-05-04T21:47:14.178Z,4.77
2018-05-04T21:49:48.765Z,4.83
2018-05-04T21:52:23.381Z,5.10
2018-05-04T21:54:58.038Z,4.87
2018-05-04T21:57:32.578Z,5.03
2018-05-04T22:00:07.074Z,5.17
2018-05-04T22:02:41.682Z,5.53
2018-05-04T22:05:16.270Z,4.50
2018-05-04T22:07:50.905Z,4.30
2018-05-04T22:10:25.574Z,5.13
2018-05-04T22:13:00.796Z,4.70
2018-05-04T22:15:36.226Z,4.70
2018-05-04T22:18:10.622Z,4.97
2018-05-04T22:20:45.186Z,4.33
2018-05-04T22:23:19.773Z,4.87
2018-05-04T22:25:54.393Z,4.93
2018-05-04T22:28:29.095Z,4.63
2018-05-04T22:31:03.654Z,5.27
2018-05-04T22:33:38.152Z,5.03
2018-05-04T22:36:12.557Z,5.20
2018-05-04T22:38:47.092Z,4.77
2018-05-04T22:41:21.706Z,4.97
2018-05-04T22:43:56.127Z,4.97
2018-05-04T22:46:30.722Z,5.20
2018-05-04T22:49:05.962Z,5.37
2018-05-04T22:51:40.500Z,4.67
2018-05-04T22:54:15.192Z,5.23
2018-05-04T22:56:49.909Z,5.13
2018-05-04T22:59:24.373Z,4.63
2018-05-04T23:01:59.749Z,5.10
2018-05-04T23:04:34.280Z,5.07
2018-05-04T23:07:09.590Z,5.23
2018-05-04T23:09:44.854Z,4.87
2018-05-04T23:12:19.476Z,5.30
2018-05-04T23:14:53.924Z,5.20
2018-05-04T23:17:28.515Z,4.90
2018-05-04T23:20:03.136Z,5.03
2018-05-04T23:22:37.808Z,4.73
2018-05-04T23:25:13.078Z,5.00
2018-05-04T23:27:47.780Z,4.77
2018-05-04T23:30:22.278Z,4.63
2018-05-04T23:32:57.633Z,5.30
2018-05-04T23:35:32.195Z,8.10
2018-05-04T23:38:07.446Z,5.73
2018-05-04T23:40:42.006Z,4.77
2018-05-04T23:43:16.619Z,5.10
2018-05-04T23:45:51.277Z,4.77
2018-05-04T23:48:25.759Z,8.03
2018-05-04T23:51:00.202Z,7.80
2018-05-04T23:53:34.849Z,5.97
2018-05-04T23:56:11.550Z,5.07
2018-05-04T23:58:46.112Z,5.30
